Time;durP1;ratioP1;P1;durP2;ratioP2;P2;SDS_P1;SDS_P2;PMS_P1;PMS_P2;Temp;Humidity;BMP_temperature;BMP_pressure;BME280_temperature;BME280_humidity;BME280_pressure;Samples;Min_cycle;Max_cycle;Signal;HPM_P1;HPM_P2
2024/02/12 00:00:28;;;;;;;21.00;11.40;;;8.80;99.90;;;;;;5009762;28;20423;-78
2024/02/12 00:02:54;;;;;;;21.52;10.43;;;8.80;99.90;;;;;;5008518;28;20029;-78
2024/02/12 00:05:21;;;;;;;20.08;10.40;;;8.80;99.90;;;;;;5008426;28;20075;-78
2024/02/12 00:07:47;;;;;;;14.68;9.20;;;8.70;99.90;;;;;;5007990;28;20064;-78
2024/02/12 00:10:13;;;;;;;17.73;10.27;;;8.70;99.90;;;;;;5008266;28;20494;-81
2024/02/12 00:12:42;;;;;;;21.30;10.90;;;8.60;99.90;;;;;;4990442;28;20076;-80
2024/02/12 00:15:11;;;;;;;17.83;10.55;;;8.60;99.90;;;;;;5008166;28;20026;-81
2024/02/12 00:17:41;;;;;;;17.42;10.60;;;8.60;99.90;;;;;;4990543;28;20159;-80
2024/02/12 00:20:10;;;;;;;18.13;11.15;;;8.50;99.90;;;;;;5008026;28;20053;-80
2024/02/12 00:22:40;;;;;;;19.08;10.90;;;8.50;99.90;;;;;;5007954;28;20029;-80
2024/02/12 00:25:12;;;;;;;19.55;11.90;;;8.50;99.90;;;;;;4991936;28;20521;-80
2024/02/12 00:27:39;;;;;;;19.73;11.07;;;8.40;99.90;;;;;;5009853;28;20025;-80
2024/02/12 00:30:08;;;;;;;21.50;11.32;;;8.40;99.90;;;;;;5007662;28;20029;-81
2024/02/12 00:32:36;;;;;;;19.42;11.88;;;8.40;99.90;;;;;;5007597;28;20029;-80
2024/02/12 00:35:03;;;;;;;21.52;11.95;;;8.40;99.90;;;;;;4994208;28;20025;-81
2024/02/12 00:37:29;;;;;;;22.73;12.48;;;8.40;99.90;;;;;;4989861;28;20030;-80
2024/02/12 00:39:55;;;;;;;29.50;12.00;;;8.40;99.90;;;;;;5007558;28;20144;-80
2024/02/12 00:42:23;;;;;;;24.02;12.80;;;8.40;99.90;;;;;;5007437;28;20384;-80
2024/02/12 00:44:49;;;;;;;22.33;12.48;;;8.40;99.90;;;;;;5007335;28;20399;-80
2024/02/12 00:47:15;;;;;;;24.50;12.65;;;8.40;99.90;;;;;;5006993;28;20029;-80
2024/02/12 00:49:43;;;;;;;21.52;12.68;;;8.40;99.90;;;;;;5007379;28;20029;-80
2024/02/12 00:52:10;;;;;;;28.08;12.60;;;8.40;99.90;;;;;;4989409;28;20117;-80
2024/02/12 00:54:39;;;;;;;25.10;12.85;;;8.40;99.90;;;;;;4989491;28;20447;-80
2024/02/12 00:57:07;;;;;;;28.33;13.13;;;8.40;99.90;;;;;;5007015;28;20037;-80
2024/02/12 00:59:38;;;;;;;24.38;13.65;;;8.40;99.90;;;;;;5007004;28;20206;-81
2024/02/12 01:02:10;;;;;;;28.95;12.98;;;8.40;99.90;;;;;;5006740;28;20029;-80
2024/02/12 01:04:36;;;;;;;22.42;13.20;;;8.40;99.90;;;;;;5007301;28;20026;-80
2024/02/12 01:07:03;;;;;;;25.55;13.35;;;8.40;99.90;;;;;;5006810;28;20833;-81
2024/02/12 01:09:29;;;;;;;30.30;15.32;;;8.40;99.90;;;;;;4989480;28;20499;-80
2024/02/12 01:11:55;;;;;;;26.23;14.18;;;8.40;99.90;;;;;;5006806;28;20025;-80
2024/02/12 01:14:23;;;;;;;27.48;14.90;;;8.50;99.90;;;;;;5007178;28;20157;-80
2024/02/12 01:16:49;;;;;;;27.63;15.52;;;8.50;99.90;;;;;;5006514;28;20897;-79
2024/02/12 01:19:15;;;;;;;32.63;16.08;;;8.50;99.90;;;;;;5007099;28;20041;-80
2024/02/12 01:21:41;;;;;;;29.95;14.82;;;8.50;99.90;;;;;;5006377;28;20072;-80
2024/02/12 01:24:06;;;;;;;32.83;17.23;;;8.50;99.90;;;;;;5006938;28;20451;-80
2024/02/12 01:26:36;;;;;;;33.00;15.55;;;8.50;99.90;;;;;;4992483;28;20022;-80
2024/02/12 01:29:05;;;;;;;30.80;15.30;;;8.50;99.90;;;;;;5007388;28;20022;-80
2024/02/12 01:31:31;;;;;;;32.72;16.13;;;8.50;99.90;;;;;;5006913;28;20579;-80
2024/02/12 01:33:57;;;;;;;30.88;15.57;;;8.50;99.90;;;;;;4993667;28;20125;-80
2024/02/12 01:36:24;;;;;;;28.63;14.93;;;8.40;99.90;;;;;;5008801;28;20018;-80
2024/02/12 01:38:51;;;;;;;40.22;16.38;;;8.40;99.90;;;;;;5006933;28;20571;-80
2024/02/12 01:41:16;;;;;;;31.13;16.55;;;8.40;99.90;;;;;;5006069;28;20025;-80
2024/02/12 01:43:42;;;;;;;30.67;15.07;;;8.40;99.90;;;;;;5006480;28;20026;-80
2024/02/12 01:46:09;;;;;;;30.65;16.10;;;8.40;99.90;;;;;;5006280;28;20434;-80
2024/02/12 01:48:36;;;;;;;31.45;16.08;;;8.40;99.90;;;;;;5006668;28;20041;-80
2024/02/12 01:51:09;;;;;;;27.52;15.73;;;8.40;99.90;;;;;;5006246;28;20537;-80
2024/02/12 01:53:37;;;;;;;34.58;16.50;;;8.50;99.90;;;;;;5005802;28;20074;-80
2024/02/12 01:56:06;;;;;;;37.05;16.70;;;8.40;99.90;;;;;;5005849;28;20014;-80
2024/02/12 01:58:42;;;;;;;34.83;17.40;;;8.40;99.90;;;;;;5005691;28;20042;-79
2024/02/12 02:01:14;;;;;;;32.90;17.42;;;8.40;99.90;;;;;;4975387;28;20018;-80
2024/02/12 02:03:41;;;;;;;32.85;16.15;;;8.40;99.90;;;;;;5005992;28;20522;-78
2024/02/12 02:06:12;;;;;;;37.83;16.75;;;8.40;99.90;;;;;;5005802;28;20091;-79
2024/02/12 02:08:39;;;;;;;29.55;16.38;;;8.40;99.90;;;;;;4992038;28;20014;-79
2024/02/12 02:11:05;;;;;;;33.88;15.57;;;8.40;99.90;;;;;;5005837;28;20038;-79
2024/02/12 02:13:42;;;;;;;42.78;18.23;;;8.50;99.90;;;;;;5005843;28;20610;-79
2024/02/12 02:16:08;;;;;;;31.02;15.15;;;8.40;99.90;;;;;;5006003;28;20038;-79
2024/02/12 02:18:34;;;;;;;35.35;16.38;;;8.40;99.90;;;;;;5006692;28;20122;-79
2024/02/12 02:21:00;;;;;;;33.03;15.65;;;8.40;99.90;;;;;;5005602;28;20037;-79
2024/02/12 02:23:27;;;;;;;33.55;15.43;;;8.40;99.90;;;;;;5006892;28;20018;-79
2024/02/12 02:25:53;;;;;;;41.40;17.45;;;8.40;99.90;;;;;;5005845;28;20503;-79
2024/02/12 02:28:20;;;;;;;41.08;15.82;;;8.40;99.90;;;;;;5006692;28;20044;-79
2024/02/12 02:30:48;;;;;;;35.50;17.00;;;8.40;99.90;;;;;;5005491;28;20109;-79
2024/02/12 02:33:15;;;;;;;35.58;16.83;;;8.40;99.90;;;;;;5006251;28;20384;-79
2024/02/12 02:35:41;;;;;;;35.55;17.30;;;8.40;99.90;;;;;;4987974;28;20030;-79
2024/02/12 02:38:19;;;;;;;35.40;17.08;;;8.40;99.90;;;;;;5009932;28;20022;-79
2024/02/12 02:40:44;;;;;;;30.65;16.20;;;8.40;99.90;;;;;;5008599;28;20117;-79
2024/02/12 02:43:11;;;;;;;29.75;14.93;;;8.40;99.90;;;;;;5005905;28;20097;-78
2024/02/12 02:45:37;;;;;;;33.55;16.95;;;8.50;99.90;;;;;;5005523;28;20029;-79
2024/02/12 02:48:04;;;;;;;35.10;17.63;;;8.50;99.90;;;;;;5005869;28;20078;-78
2024/02/12 02:50:30;;;;;;;36.40;17.65;;;8.40;99.90;;;;;;4987818;28;20033;-78
2024/02/12 02:52:56;;;;;;;40.75;17.88;;;8.40;99.90;;;;;;4988029;28;20056;-78
2024/02/12 02:55:24;;;;;;;36.08;16.90;;;8.40;99.90;;;;;;5005830;28;20053;-80
2024/02/12 02:57:49;;;;;;;39.42;18.63;;;8.40;99.90;;;;;;4988453;28;20492;-79
2024/02/12 03:00:15;;;;;;;39.35;17.48;;;8.40;99.90;;;;;;5006001;28;20355;-78
2024/02/12 03:02:44;;;;;;;39.17;19.40;;;8.40;99.90;;;;;;4987632;28;20153;-78
2024/02/12 03:05:14;;;;;;;37.58;16.73;;;8.40;99.90;;;;;;4989543;28;20026;-78
2024/02/12 03:07:45;;;;;;;39.80;19.63;;;8.40;99.90;;;;;;5008734;28;20033;-78
2024/02/12 03:10:11;;;;;;;38.28;18.25;;;8.40;99.90;;;;;;5010848;28;20041;-78
2024/02/12 03:12:38;;;;;;;37.22;18.13;;;8.40;99.90;;;;;;5010863;28;20442;-78
2024/02/12 03:15:19;;;;;;;35.67;18.83;;;8.40;99.90;;;;;;4991521;28;20025;-79
2024/02/12 03:17:45;;;;;;;41.05;19.20;;;8.40;99.90;;;;;;4990961;28;20030;-79
2024/02/12 03:20:12;;;;;;;40.47;18.90;;;8.40;99.90;;;;;;5009382;28;20022;-79
2024/02/12 03:22:41;;;;;;;42.00;19.58;;;8.40;99.90;;;;;;4990690;28;20030;-79
2024/02/12 03:25:09;;;;;;;33.22;17.35;;;8.40;99.90;;;;;;4991527;28;20018;-79
2024/02/12 03:27:35;;;;;;;39.28;18.13;;;8.40;99.90;;;;;;4990608;28;20026;-78
2024/02/12 03:30:02;;;;;;;39.05;18.15;;;8.40;99.90;;;;;;4991407;28;20502;-79
2024/02/12 03:32:29;;;;;;;38.63;17.75;;;8.40;99.90;;;;;;5008425;28;20384;-79
2024/02/12 03:34:55;;;;;;;42.63;19.58;;;8.40;99.90;;;;;;5008942;28;20550;-79
2024/02/12 03:37:20;;;;;;;36.25;19.17;;;8.40;99.90;;;;;;5008467;28;20026;-79
2024/02/12 03:39:46;;;;;;;38.00;17.13;;;8.40;99.90;;;;;;5008759;28;20028;-79
2024/02/12 03:42:12;;;;;;;39.00;18.35;;;8.40;99.90;;;;;;5010928;28;20022;-79
2024/02/12 03:44:40;;;;;;;40.15;19.73;;;8.40;99.90;;;;;;5013189;28;20495;-79
2024/02/12 03:47:07;;;;;;;38.35;17.60;;;8.30;99.90;;;;;;4990872;28;20030;-78
2024/02/12 04:00:30;;;;;;;41.53;19.98;;;8.20;99.90;;;;;;5008695;28;20103;-79
2024/02/12 04:02:58;;;;;;;41.33;18.58;;;8.20;99.90;;;;;;5008075;28;20018;-78
2024/02/12 04:05:24;;;;;;;34.25;18.38;;;8.20;99.90;;;;;;5008167;28;20026;-79
2024/02/12 04:07:50;;;;;;;38.53;19.10;;;8.20;99.90;;;;;;4994014;28;20030;-79
2024/02/12 04:10:15;;;;;;;38.17;16.85;;;8.20;99.90;;;;;;4990551;28;20022;-78
2024/02/12 04:12:47;;;;;;;38.60;19.33;;;8.10;99.90;;;;;;5007713;28;20026;-79
2024/02/12 04:15:15;;;;;;;38.50;18.40;;;8.10;99.90;;;;;;4990246;28;20030;-79
2024/02/12 04:17:42;;;;;;;36.15;18.63;;;8.10;99.90;;;;;;4992246;28;20053;-79
2024/02/12 04:20:10;;;;;;;35.70;18.10;;;8.00;99.90;;;;;;5009208;28;20052;-79
2024/02/12 04:22:36;;;;;;;42.03;18.80;;;7.90;99.90;;;;;;5007394;28;20056;-79
2024/02/12 04:25:04;;;;;;;43.03;20.17;;;7.90;99.90;;;;;;4990416;28;20021;-78
2024/02/12 04:27:31;;;;;;;43.25;21.58;;;7.80;99.90;;;;;;4990037;28;20058;-79
2024/02/12 04:29:57;;;;;;;37.33;19.27;;;7.80;99.90;;;;;;4973377;28;20026;-79
2024/02/12 04:32:24;;;;;;;40.97;18.92;;;7.70;99.90;;;;;;4999707;28;20036;-79
2024/02/12 04:34:49;;;;;;;39.42;19.73;;;7.70;99.90;;;;;;5007359;28;20700;-79
2024/02/12 04:37:15;;;;;;;46.20;20.20;;;7.70;99.90;;;;;;5007256;28;20030;-78
2024/02/12 04:39:41;;;;;;;42.00;20.05;;;7.70;99.90;;;;;;5007524;28;20025;-78
2024/02/12 04:42:07;;;;;;;35.20;18.27;;;7.70;99.90;;;;;;4989304;28;20026;-79
2024/02/12 04:44:32;;;;;;;47.08;19.27;;;7.60;99.90;;;;;;5007150;28;20484;-78
2024/02/12 04:47:02;;;;;;;45.90;19.92;;;7.60;99.90;;;;;;5007101;28;20105;-78
2024/02/12 04:49:28;;;;;;;42.38;18.48;;;7.60;99.90;;;;;;5010635;28;20022;-78
2024/02/12 04:51:54;;;;;;;44.92;20.55;;;7.60;99.90;;;;;;5011458;28;20022;-78
2024/02/12 04:54:20;;;;;;;39.67;19.13;;;7.60;99.90;;;;;;4989583;28;20132;-79
2024/02/12 04:56:46;;;;;;;41.90;19.73;;;7.60;99.90;;;;;;5006579;28;20030;-78
2024/02/12 04:59:16;;;;;;;44.10;20.92;;;7.60;99.90;;;;;;5007081;28;20064;-78
2024/02/12 05:01:42;;;;;;;40.42;19.13;;;7.60;99.90;;;;;;5006638;28;20496;-78
2024/02/12 05:04:08;;;;;;;45.85;20.30;;;7.50;99.90;;;;;;5007328;28;20597;-78
2024/02/12 05:06:33;;;;;;;44.88;18.13;;;7.50;99.90;;;;;;5006451;28;20234;-78
2024/02/12 05:09:06;;;;;;;44.42;19.17;;;7.50;99.90;;;;;;5007312;28;20132;-78
2024/02/12 05:11:32;;;;;;;43.30;20.40;;;7.40;99.90;;;;;;5006692;28;20029;-78
2024/02/12 05:13:58;;;;;;;41.30;18.50;;;7.40;99.90;;;;;;5007120;28;20092;-78
2024/02/12 05:16:30;;;;;;;49.80;20.25;;;7.30;99.90;;;;;;4988816;28;20399;-78
2024/02/12 05:24:29;;;;;;;46.67;20.08;;;7.20;99.90;;;;;;5012043;28;20033;-78
2024/02/12 05:26:56;;;;;;;47.78;22.63;;;7.20;99.90;;;;;;4989691;28;20022;-78
2024/02/12 05:29:25;;;;;;;47.90;21.13;;;7.20;99.90;;;;;;5006367;28;20511;-79
2024/02/12 05:31:51;;;;;;;50.33;20.00;;;7.20;99.90;;;;;;5006270;28;20014;-78
2024/02/12 05:34:20;;;;;;;52.92;21.75;;;7.20;99.90;;;;;;5006763;28;20026;-78
2024/02/12 05:36:49;;;;;;;52.92;22.27;;;7.20;99.90;;;;;;4992349;28;20484;-79
2024/02/12 05:39:16;;;;;;;52.67;21.48;;;7.10;99.90;;;;;;4989160;28;20026;-79
2024/02/12 05:41:42;;;;;;;46.78;20.30;;;7.10;99.90;;;;;;5006163;28;20030;-79
2024/02/12 05:44:08;;;;;;;51.45;22.15;;;7.10;99.90;;;;;;4989330;28;20010;-79
2024/02/12 05:46:34;;;;;;;55.25;21.48;;;7.20;99.90;;;;;;5006299;28;20030;-79
2024/02/12 05:49:00;;;;;;;59.50;23.67;;;7.10;99.90;;;;;;5006596;28;20167;-79
2024/02/12 05:51:26;;;;;;;50.33;23.05;;;7.10;99.90;;;;;;5006104;28;20053;-79
2024/02/12 05:53:52;;;;;;;47.80;21.88;;;7.10;99.90;;;;;;5006519;28;20041;-79
2024/02/12 05:56:20;;;;;;;51.10;21.52;;;7.10;99.90;;;;;;5008826;28;20018;-79
2024/02/12 05:58:46;;;;;;;53.80;23.70;;;7.10;99.90;;;;;;5010670;28;20042;-79
2024/02/12 06:01:12;;;;;;;46.22;20.95;;;7.10;99.90;;;;;;5006328;28;20029;-79
2024/02/12 06:03:37;;;;;;;48.97;20.58;;;7.00;99.90;;;;;;5006360;28;20411;-79
2024/02/12 06:06:03;;;;;;;45.15;19.95;;;7.10;99.90;;;;;;5006031;28;20018;-79
2024/02/12 06:08:30;;;;;;;50.38;22.67;;;7.00;99.90;;;;;;4988130;28;20022;-79
2024/02/12 06:10:56;;;;;;;47.95;20.52;;;7.00;99.90;;;;;;5006258;28;20492;-79
2024/02/12 06:13:22;;;;;;;48.75;22.05;;;7.00;99.90;;;;;;5005762;28;20021;-79
2024/02/12 06:15:47;;;;;;;51.80;22.13;;;7.00;99.90;;;;;;5006073;28;20029;-80
2024/02/12 06:18:13;;;;;;;51.72;23.25;;;7.00;99.90;;;;;;5006063;28;20399;-79
2024/02/12 06:20:39;;;;;;;57.40;25.55;;;7.00;99.90;;;;;;5005978;28;20117;-79
2024/02/12 06:23:05;;;;;;;48.90;22.00;;;7.00;99.90;;;;;;5005687;28;20100;-79
2024/02/12 06:25:31;;;;;;;55.05;22.35;;;7.00;99.90;;;;;;5006311;28;20507;-79
2024/02/12 06:27:57;;;;;;;52.85;23.42;;;7.10;99.90;;;;;;5009321;28;20053;-79
2024/02/12 06:30:23;;;;;;;49.47;21.50;;;7.10;99.90;;;;;;5006344;28;20057;-79
2024/02/12 06:32:49;;;;;;;45.85;21.08;;;7.10;99.90;;;;;;5001565;28;20111;-78
2024/02/12 06:35:16;;;;;;;51.05;21.73;;;7.10;99.90;;;;;;5006728;28;20472;-79
2024/02/12 06:37:46;;;;;;;49.92;22.13;;;7.20;99.90;;;;;;5005565;28;20057;-78
2024/02/12 06:40:12;;;;;;;48.40;21.98;;;7.20;99.90;;;;;;4978485;28;20026;-79
2024/02/12 06:42:38;;;;;;;50.08;22.50;;;7.20;99.90;;;;;;5009317;28;20033;-79
2024/02/12 06:45:04;;;;;;;47.85;22.20;;;7.20;99.90;;;;;;5010301;28;20018;-79
2024/02/12 06:47:30;;;;;;;50.13;21.75;;;7.20;99.90;;;;;;5009376;28;20559;-79
2024/02/12 06:49:56;;;;;;;43.97;21.25;;;7.30;99.90;;;;;;4992444;28;20032;-79
2024/02/12 06:52:22;;;;;;;43.83;21.13;;;7.30;99.90;;;;;;5009554;28;20030;-79
2024/02/12 06:54:48;;;;;;;46.58;21.05;;;7.30;99.90;;;;;;5009617;28;20183;-78
2024/02/12 06:57:15;;;;;;;42.90;22.33;;;7.30;99.90;;;;;;5002371;28;20056;-78
2024/02/12 06:59:42;;;;;;;48.25;22.00;;;7.30;99.90;;;;;;5009522;28;20054;-78
2024/02/12 07:02:08;;;;;;;47.05;20.08;;;7.40;99.90;;;;;;5013522;28;20029;-79
2024/02/12 07:04:34;;;;;;;46.63;20.17;;;7.40;99.90;;;;;;5012191;28;20033;-79
2024/02/12 07:07:00;;;;;;;43.70;20.02;;;7.40;99.90;;;;;;5009236;28;20022;-79
2024/02/12 07:09:25;;;;;;;50.05;20.90;;;7.40;99.90;;;;;;4999096;28;20483;-79
2024/02/12 07:11:52;;;;;;;44.42;20.50;;;7.40;99.90;;;;;;5006318;28;20030;-79
2024/02/12 07:14:18;;;;;;;40.03;19.05;;;7.40;99.90;;;;;;5006532;28;20036;-79
2024/02/12 07:16:44;;;;;;;42.55;19.38;;;7.50;99.90;;;;;;5002363;28;20104;-80
2024/02/12 07:19:10;;;;;;;50.47;22.08;;;7.50;99.90;;;;;;5008935;28;20122;-79
2024/02/12 07:21:36;;;;;;;44.17;19.70;;;7.50;99.90;;;;;;5003759;28;20037;-78
2024/02/12 07:24:03;;;;;;;46.35;20.38;;;7.50;99.90;;;;;;5007396;28;20496;-78
2024/02/12 07:26:30;;;;;;;46.88;19.25;;;7.50;99.90;;;;;;4989409;28;20026;-78
2024/02/12 07:28:55;;;;;;;48.10;22.05;;;7.50;99.90;;;;;;5008784;28;20022;-79
2024/02/12 07:31:21;;;;;;;40.05;18.30;;;7.50;99.90;;;;;;4989186;28;20036;-80
2024/02/12 07:33:47;;;;;;;42.28;20.25;;;7.60;99.90;;;;;;5008682;28;20026;-79
2024/02/12 07:36:13;;;;;;;45.38;19.10;;;7.60;99.90;;;;;;5003590;28;20026;-79
2024/02/12 07:38:40;;;;;;;43.72;18.25;;;7.60;99.90;;;;;;5003397;28;20430;-79
2024/02/12 07:41:05;;;;;;;43.88;18.80;;;7.60;99.90;;;;;;4990507;28;20029;-80
2024/02/12 07:43:31;;;;;;;43.97;20.15;;;7.60;99.90;;;;;;5008081;28;20030;-79
2024/02/12 07:45:57;;;;;;;39.88;19.67;;;7.60;99.90;;;;;;5008213;28;20119;-79
2024/02/12 07:48:24;;;;;;;38.88;17.88;;;7.60;99.90;;;;;;5008242;28;20383;-79
2024/02/12 07:50:53;;;;;;;37.28;18.92;;;7.70;99.90;;;;;;5001256;28;20032;-80
2024/02/12 07:53:25;;;;;;;38.85;18.50;;;7.70;99.90;;;;;;5008226;28;20033;-80
2024/02/12 07:55:52;;;;;;;39.17;18.80;;;7.70;99.90;;;;;;5007953;28;20029;-81
2024/02/12 07:58:20;;;;;;;37.03;19.48;;;7.70;99.90;;;;;;4990431;28;20475;-80
2024/02/12 08:00:48;;;;;;;41.13;18.40;;;7.70;99.90;;;;;;5008306;28;20550;-80
2024/02/12 08:03:16;;;;;;;34.33;18.08;;;7.70;99.90;;;;;;5008131;28;20017;-80
2024/02/12 08:05:42;;;;;;;34.70;17.88;;;7.70;99.90;;;;;;5010932;28;20018;-80
2024/02/12 08:08:07;;;;;;;35.35;17.08;;;7.70;99.90;;;;;;5012541;28;20022;-80
2024/02/12 08:10:33;;;;;;;33.97;17.48;;;7.80;99.90;;;;;;5008054;28;20507;-80
2024/02/12 08:12:59;;;;;;;38.00;19.45;;;7.80;99.90;;;;;;5007760;28;20018;-80
2024/02/12 08:18:03;;;;;;;32.92;18.30;;;7.80;99.90;;;;;;5677812;23;25075;-80
2024/02/12 08:20:29;;;;;;;38.35;19.38;;;7.80;99.90;;;;;;4984472;28;20036;-80
2024/02/12 08:22:55;;;;;;;35.00;17.52;;;7.80;99.90;;;;;;4995109;28;20034;-80
2024/02/12 08:25:21;;;;;;;35.85;18.23;;;7.90;99.90;;;;;;5007619;28;20014;-79
2024/02/12 08:27:47;;;;;;;29.83;16.63;;;7.90;99.90;;;;;;4989360;28;20101;-79
2024/02/12 08:30:14;;;;;;;38.78;17.73;;;7.90;99.90;;;;;;4993643;28;20452;-79
2024/02/12 08:32:40;;;;;;;35.78;17.92;;;8.00;99.90;;;;;;5007341;28;20117;-79
2024/02/12 08:35:07;;;;;;;36.17;18.30;;;8.00;99.90;;;;;;5007610;28;20120;-79
2024/02/12 08:37:32;;;;;;;41.63;19.73;;;8.00;99.90;;;;;;5007128;28;20029;-81
2024/02/12 08:39:58;;;;;;;38.95;20.77;;;8.00;99.90;;;;;;5006810;28;20029;-81
2024/02/12 08:42:24;;;;;;;63.63;25.45;;;8.00;99.90;;;;;;5006999;28;20022;-82
2024/02/12 08:44:51;;;;;;;89.90;32.38;;;8.10;99.90;;;;;;5007281;28;20024;-81
2024/02/12 08:47:17;;;;;;;84.55;33.95;;;8.20;99.90;;;;;;5006672;28;20403;-82
2024/02/12 08:49:45;;;;;;;85.78;32.88;;;8.20;99.90;;;;;;4988938;28;20414;-81
2024/02/12 08:52:11;;;;;;;83.57;32.58;;;8.20;99.90;;;;;;4989334;28;20029;-81
2024/02/12 08:54:37;;;;;;;73.75;27.83;;;8.30;99.90;;;;;;4989811;28;20034;-81
2024/02/12 08:57:05;;;;;;;48.08;25.27;;;8.30;99.90;;;;;;4996168;28;20030;-80
2024/02/12 08:59:32;;;;;;;48.92;24.08;;;8.40;99.90;;;;;;4998894;28;20368;-80
2024/02/12 09:01:57;;;;;;;43.80;22.55;;;8.40;99.90;;;;;;4987594;28;20483;-79
2024/02/12 09:04:23;;;;;;;41.67;21.77;;;8.50;99.90;;;;;;5006451;28;20072;-83
2024/02/12 09:06:49;;;;;;;44.92;22.20;;;8.50;99.90;;;;;;5007084;28;20046;-79
2024/02/12 09:09:15;;;;;;;53.33;24.73;;;8.50;99.90;;;;;;5006535;28;20033;-79
2024/02/12 09:11:42;;;;;;;46.17;22.80;;;8.50;99.90;;;;;;5006772;28;20462;-78
2024/02/12 09:14:09;;;;;;;42.15;23.10;;;8.50;99.90;;;;;;5006672;28;20034;-78
2024/02/12 09:16:37;;;;;;;39.58;21.67;;;8.50;99.90;;;;;;5004886;28;20076;-83
2024/02/12 09:19:03;;;;;;;41.45;21.27;;;8.60;99.90;;;;;;4987682;28;20141;-82
2024/02/12 09:21:29;;;;;;;40.47;22.13;;;8.60;99.90;;;;;;4989027;28;20025;-81
2024/02/12 09:23:54;;;;;;;44.95;23.00;;;8.60;99.90;;;;;;5005838;28;20099;-79
2024/02/12 09:26:20;;;;;;;40.92;24.00;;;8.60;99.90;;;;;;5006584;28;20045;-79
2024/02/12 09:28:47;;;;;;;40.92;22.13;;;8.60;99.90;;;;;;5005719;28;20534;-79
2024/02/12 09:31:12;;;;;;;38.88;21.90;;;8.60;99.90;;;;;;4983850;28;20053;-79
2024/02/12 09:33:38;;;;;;;38.47;20.83;;;8.60;99.90;;;;;;4988037;28;20491;-79
2024/02/12 09:36:05;;;;;;;39.75;20.73;;;8.60;99.90;;;;;;5006506;28;20018;-80
2024/02/12 09:38:30;;;;;;;42.28;22.67;;;8.60;99.90;;;;;;5005880;28;20414;-79
2024/02/12 09:40:57;;;;;;;44.85;23.25;;;8.60;99.90;;;;;;5006232;28;20025;-82
2024/02/12 09:43:25;;;;;;;41.22;23.00;;;8.60;99.90;;;;;;5006125;28;20026;-81
2024/02/12 09:45:57;;;;;;;41.33;24.33;;;8.60;99.90;;;;;;5005391;28;20030;-80
2024/02/12 09:48:25;;;;;;;35.42;21.95;;;8.60;99.90;;;;;;4987141;28;20026;-82
2024/02/12 09:50:51;;;;;;;41.13;25.25;;;8.60;99.90;;;;;;4992896;28;20079;-80
2024/02/12 09:53:21;;;;;;;45.08;23.92;;;8.60;99.90;;;;;;5005546;28;20041;-80
2024/02/12 09:55:47;;;;;;;44.97;23.73;;;8.60;99.90;;;;;;5005769;28;20111;-80
2024/02/12 09:58:15;;;;;;;41.92;23.70;;;8.60;99.90;;;;;;5004134;28;20034;-80
2024/02/12 10:00:42;;;;;;;42.55;22.80;;;8.60;99.90;;;;;;5002703;28;20030;-80
2024/02/12 10:03:12;;;;;;;39.83;24.67;;;8.70;99.90;;;;;;4997016;28;20045;-83
2024/02/12 10:05:41;;;;;;;46.35;23.08;;;8.70;99.90;;;;;;5007040;28;20022;-83
2024/02/12 10:08:26;;;;;;;44.85;24.83;;;8.70;99.90;;;;;;4984722;28;20108;-82
2024/02/12 10:10:53;;;;;;;40.42;22.90;;;8.70;99.90;;;;;;5004427;28;20021;-80
2024/02/12 10:13:20;;;;;;;42.80;22.88;;;8.70;99.90;;;;;;4996610;28;20029;-82
2024/02/12 10:15:47;;;;;;;41.53;20.75;;;8.70;99.90;;;;;;4991519;28;20030;-79
2024/02/12 10:18:16;;;;;;;40.10;21.38;;;8.70;99.90;;;;;;4981253;28;20656;-82
2024/02/12 10:20:42;;;;;;;39.20;21.85;;;8.70;99.90;;;;;;5005514;28;20511;-82
2024/02/12 10:23:09;;;;;;;39.67;22.00;;;8.80;99.90;;;;;;5001495;28;20026;-82
2024/02/12 10:25:39;;;;;;;35.45;20.00;;;8.80;99.90;;;;;;4986412;28;20029;-80
2024/02/12 10:28:05;;;;;;;38.03;21.10;;;8.80;99.90;;;;;;4988113;28;20022;-80
2024/02/12 10:30:31;;;;;;;33.92;20.35;;;8.90;99.90;;;;;;4999625;28;20550;-80
2024/02/12 10:33:04;;;;;;;31.02;18.23;;;8.90;99.90;;;;;;5006011;28;20091;-81
2024/02/12 10:35:31;;;;;;;33.55;18.90;;;9.00;99.90;;;;;;4993621;28;20499;-81
2024/02/12 10:37:57;;;;;;;36.80;18.85;;;9.10;99.90;;;;;;4988083;28;20495;-82
2024/02/12 10:40:29;;;;;;;31.23;17.92;;;9.20;99.90;;;;;;4988659;28;20030;-81
2024/02/12 10:42:58;;;;;;;27.55;16.98;;;9.20;99.90;;;;;;4999497;28;20015;-82
2024/02/12 10:45:24;;;;;;;26.13;16.17;;;9.30;99.90;;;;;;5000601;28;20038;-79
2024/02/12 10:47:50;;;;;;;25.58;15.52;;;9.40;99.90;;;;;;5000418;28;20022;-82
2024/02/12 10:50:17;;;;;;;22.05;14.13;;;9.40;99.90;;;;;;5005295;28;20041;-81
2024/02/12 10:52:44;;;;;;;26.63;13.82;;;9.40;99.90;;;;;;5002605;28;20030;-80
2024/02/12 10:55:10;;;;;;;21.30;12.70;;;9.40;99.90;;;;;;4988726;28;20029;-80
2024/02/12 10:57:38;;;;;;;22.85;12.52;;;9.40;99.90;;;;;;4991910;28;20053;-81
2024/02/12 11:00:05;;;;;;;18.52;11.18;;;9.40;99.90;;;;;;4995352;28;20025;-80
2024/02/12 11:02:44;;;;;;;19.98;10.65;;;9.30;99.90;;;;;;5004012;28;20487;-80
2024/02/12 11:05:12;;;;;;;19.25;9.02;;;9.30;99.90;;;;;;4985690;28;20030;-81
2024/02/12 11:07:37;;;;;;;16.48;10.02;;;9.40;99.90;;;;;;4995490;28;20403;-80
2024/02/12 11:10:05;;;;;;;16.95;9.57;;;9.40;99.90;;;;;;5004945;28;20053;-81
2024/02/12 11:12:35;;;;;;;17.77;9.40;;;9.40;99.90;;;;;;4998876;28;20038;-80
2024/02/12 11:15:10;;;;;;;18.10;9.05;;;9.50;99.90;;;;;;5005279;28;20034;-81
2024/02/12 11:17:36;;;;;;;15.65;8.90;;;9.50;99.90;;;;;;4981344;28;20042;-81
2024/02/12 11:20:05;;;;;;;17.38;9.93;;;9.60;99.90;;;;;;4983681;28;20026;-81
2024/02/12 11:22:31;;;;;;;17.08;9.05;;;9.70;99.90;;;;;;4981260;28;20030;-81
2024/02/12 11:25:04;;;;;;;17.15;8.07;;;9.70;99.90;;;;;;4985485;28;20097;-81
2024/02/12 11:27:40;;;;;;;14.73;8.63;;;9.70;99.90;;;;;;4988575;28;20030;-83
2024/02/12 11:30:11;;;;;;;13.13;7.22;;;9.80;99.90;;;;;;4976395;28;20030;-81
2024/02/12 11:32:37;;;;;;;18.33;8.02;;;9.90;99.90;;;;;;4982245;28;20452;-81
2024/02/12 11:35:13;;;;;;;13.45;7.18;;;10.00;99.90;;;;;;4980773;28;20077;-80
2024/02/12 11:38:02;;;;;;;13.60;7.80;;;10.10;99.90;;;;;;4988505;28;20037;-80
2024/02/12 11:40:27;;;;;;;13.13;7.22;;;10.30;99.90;;;;;;4987818;28;20134;-80
2024/02/12 11:42:53;;;;;;;10.68;7.38;;;10.50;99.90;;;;;;4987172;28;20168;-80
2024/02/12 11:45:23;;;;;;;16.48;6.72;;;10.50;99.90;;;;;;4988814;28;20527;-80
2024/02/12 11:47:49;;;;;;;11.48;5.93;;;10.50;99.90;;;;;;4988060;28;20022;-81
2024/02/12 11:50:25;;;;;;;12.07;6.15;;;10.60;99.90;;;;;;4985408;28;20031;-80
2024/02/12 11:52:51;;;;;;;9.68;6.00;;;10.50;99.90;;;;;;4977801;28;20088;-81
2024/02/12 11:55:18;;;;;;;14.23;5.85;;;10.60;99.90;;;;;;4986619;28;20030;-81
2024/02/12 11:57:44;;;;;;;11.35;5.18;;;10.60;99.90;;;;;;4987621;28;20058;-80
2024/02/12 12:00:16;;;;;;;11.75;6.35;;;10.70;99.90;;;;;;4988464;28;20038;-81
2024/02/12 12:02:53;;;;;;;12.70;5.97;;;10.90;99.90;;;;;;4976324;28;20430;-80
2024/02/12 12:05:23;;;;;;;11.13;6.47;;;11.00;99.90;;;;;;4970874;28;20033;-80
2024/02/12 12:07:49;;;;;;;10.75;5.80;;;11.30;99.90;;;;;;4973358;28;20015;-80
2024/02/12 12:10:26;;;;;;;14.90;6.75;;;11.40;99.90;;;;;;4989027;28;20042;-80
2024/02/12 12:12:54;;;;;;;15.50;6.25;;;11.50;99.90;;;;;;4974521;28;20496;-80
2024/02/12 12:15:19;;;;;;;11.50;5.70;;;11.60;99.90;;;;;;4981229;28;20027;-80
2024/02/12 12:17:49;;;;;;;8.77;5.10;;;11.70;99.90;;;;;;4989198;28;20407;-80
2024/02/12 12:20:15;;;;;;;10.15;6.10;;;11.70;99.90;;;;;;5007557;28;20033;-80
2024/02/12 12:22:42;;;;;;;13.25;5.57;;;11.80;99.90;;;;;;5007614;28;20104;-80
2024/02/12 12:25:09;;;;;;;9.40;4.57;;;11.90;99.90;;;;;;5004535;28;20112;-80
2024/02/12 12:27:37;;;;;;;10.55;4.90;;;12.00;99.90;;;;;;5007491;28;20026;-81
2024/02/12 12:30:13;;;;;;;12.98;5.80;;;12.10;99.90;;;;;;4989261;28;20149;-80
2024/02/12 12:32:40;;;;;;;9.15;4.43;;;12.00;99.90;;;;;;5005606;28;20914;-79
2024/02/12 12:35:07;;;;;;;12.52;5.38;;;11.90;99.90;;;;;;5002508;28;20124;-80
2024/02/12 12:37:33;;;;;;;12.13;5.05;;;11.90;99.90;;;;;;5006918;28;20061;-80
2024/02/12 12:39:59;;;;;;;10.48;5.50;;;11.80;99.90;;;;;;5000720;28;20116;-80
2024/02/12 12:42:25;;;;;;;8.85;4.88;;;11.60;99.90;;;;;;5007108;28;20105;-79
2024/02/12 12:44:51;;;;;;;8.15;4.30;;;11.70;99.90;;;;;;4995902;28;20480;-80
2024/02/12 12:47:18;;;;;;;11.07;4.18;;;11.70;99.90;;;;;;5006385;28;20042;-79
2024/02/12 12:49:44;;;;;;;10.75;4.07;;;11.70;99.90;;;;;;5005891;28;20026;-80
2024/02/12 12:52:10;;;;;;;5.90;3.25;;;11.80;99.90;;;;;;5005896;28;20025;-79
2024/02/12 12:54:39;;;;;;;7.53;2.58;;;11.90;99.90;;;;;;4987260;28;20037;-79
2024/02/12 12:57:06;;;;;;;8.48;2.92;;;11.90;99.90;;;;;;4988016;28;20034;-80